createdAt,value
2023-08-06T00:00:01.277Z,15.2
2023-08-06T00:03:01.295Z,15.1
2023-08-06T00:05:01.044Z,15.3
2023-08-06T00:07:01.047Z,15.2
2023-08-06T00:09:01.016Z,15.2
2023-08-06T00:12:01.323Z,15
2023-08-06T00:14:01.149Z,15
2023-08-06T00:17:01.202Z,14.9
2023-08-06T00:18:01.210Z,15
2023-08-06T00:20:01.040Z,14.9
2023-08-06T00:22:00.996Z,15
2023-08-06T00:23:01.178Z,14.9
2023-08-06T00:25:00.985Z,15.1
2023-08-06T00:26:01.039Z,14.9
2023-08-06T00:33:01.049Z,14.8
2023-08-06T00:40:00.983Z,14.9
2023-08-06T00:41:00.971Z,14.8
2023-08-06T00:44:01.043Z,14.7
2023-08-06T00:46:01.014Z,14.6
2023-08-06T00:48:01.174Z,14.7
2023-08-06T00:55:00.961Z,14.7
2023-08-06T00:56:00.933Z,14.6
2023-08-06T00:58:00.964Z,14.8
2023-08-06T00:59:00.963Z,14.7
2023-08-06T01:02:00.985Z,14.8
2023-08-06T01:03:01.030Z,14.7
2023-08-06T01:07:00.954Z,14.6
2023-08-06T01:08:01.015Z,14.7
2023-08-06T01:09:01.146Z,14.8
2023-08-06T01:12:01.105Z,14.7
2023-08-06T01:14:01.016Z,14.7
2023-08-06T01:15:01.086Z,14.8
2023-08-06T01:17:00.938Z,14.7
2023-08-06T01:18:01.077Z,14.6
2023-08-06T01:19:01.071Z,14.7
2023-08-06T01:21:00.989Z,14.7
2023-08-06T01:23:01.032Z,15
2023-08-06T01:24:01.015Z,14.8
2023-08-06T01:27:00.998Z,14.9
2023-08-06T01:29:00.988Z,14.7
2023-08-06T01:32:01.102Z,14.9
2023-08-06T01:34:00.954Z,14.8
2023-08-06T01:38:01.123Z,14.9
2023-08-06T01:40:01.072Z,14.8
2023-08-06T01:42:01.021Z,14.7
2023-08-06T01:43:01.009Z,14.9
2023-08-06T01:44:01.017Z,14.8
2023-08-06T01:45:01.046Z,15
2023-08-06T01:47:01.023Z,15
2023-08-06T01:48:01.104Z,14.8
2023-08-06T01:49:01.121Z,15
2023-08-06T01:50:01.090Z,14.8
2023-08-06T01:51:01.069Z,14.9
2023-08-06T01:54:01.089Z,14.8
2023-08-06T01:57:01.082Z,14.9
2023-08-06T02:08:01.032Z,15.1
2023-08-06T02:09:01.123Z,15
2023-08-06T02:11:01.028Z,15.1
2023-08-06T02:17:01.006Z,15.2
2023-08-06T02:19:00.992Z,15.1
2023-08-06T02:22:01.004Z,15
2023-08-06T02:23:01.027Z,15.1
2023-08-06T02:25:00.982Z,15.2
2023-08-06T02:26:01.169Z,15.1
2023-08-06T02:28:00.990Z,15.2
2023-08-06T02:29:01.016Z,15.1
2023-08-06T02:34:01.062Z,15.2
2023-08-06T02:35:01.047Z,15.1
2023-08-06T02:39:01.188Z,15.2
2023-08-06T02:41:01.025Z,15.1
2023-08-06T02:43:00.972Z,15.2
2023-08-06T02:44:01.061Z,15.1
2023-08-06T02:46:01.093Z,15
2023-08-06T02:47:01.058Z,15.2
2023-08-06T02:49:01.059Z,15.1
2023-08-06T02:51:01.138Z,15.1
2023-08-06T02:53:01.079Z,15.1
2023-08-06T02:54:01.151Z,15
2023-08-06T02:57:01.067Z,15.2
2023-08-06T02:58:01.097Z,15.1
2023-08-06T03:00:01.178Z,15.1
2023-08-06T03:04:01.068Z,14.9
2023-08-06T03:05:01.139Z,15.1
2023-08-06T03:09:01.113Z,14.8
2023-08-06T03:10:01.168Z,14.9
2023-08-06T03:12:01.073Z,14.8
2023-08-06T03:15:01.105Z,14.8
2023-08-06T03:17:01.070Z,14.9
2023-08-06T03:18:01.101Z,14.8
2023-08-06T03:19:01.146Z,14.9
2023-08-06T03:21:00.984Z,14.8
2023-08-06T03:22:01.066Z,15
2023-08-06T03:24:01.025Z,14.7
2023-08-06T03:27:01.137Z,14.8
2023-08-06T03:28:01.102Z,14.6
2023-08-06T03:31:01.034Z,14.6
2023-08-06T03:32:01.125Z,14.7
2023-08-06T03:34:01.076Z,14.6
2023-08-06T03:36:01.085Z,14.7
2023-08-06T03:40:01.047Z,14.8
2023-08-06T03:42:01.152Z,14.6
2023-08-06T03:45:01.174Z,14.6
2023-08-06T03:50:00.990Z,14.7
2023-08-06T03:51:01.169Z,14.6
2023-08-06T04:02:01.081Z,14.4
2023-08-06T04:04:00.982Z,14.6
2023-08-06T04:05:01.026Z,14.7
2023-08-06T04:06:01.119Z,14.6
2023-08-06T04:08:01.057Z,14.7
2023-08-06T04:09:01.027Z,14.6
2023-08-06T04:10:01.086Z,14.5
2023-08-06T04:12:01.142Z,14.7
2023-08-06T04:14:00.987Z,14.5
2023-08-06T04:15:01.081Z,14.6
2023-08-06T04:16:01.350Z,14.7
2023-08-06T04:20:01.025Z,14.5
2023-08-06T04:21:01.120Z,14.7
2023-08-06T04:23:01.103Z,14.6
2023-08-06T04:28:01.011Z,14.5
2023-08-06T04:29:01.003Z,14.6
2023-08-06T04:30:01.332Z,14.5
2023-08-06T04:32:01.061Z,14.6
2023-08-06T04:33:01.162Z,14.5
2023-08-06T04:36:01.193Z,14.7
2023-08-06T04:40:01.137Z,14.5
2023-08-06T04:41:01.137Z,14.7
2023-08-06T04:43:01.071Z,14.6
2023-08-06T04:45:01.173Z,14.6
2023-08-06T04:49:01.059Z,14.7
2023-08-06T04:52:01.067Z,14.6
2023-08-06T04:54:01.034Z,14.6
2023-08-06T04:55:01.034Z,14.4
2023-08-06T04:56:01.063Z,14.5
2023-08-06T04:58:01.062Z,14.7
2023-08-06T05:00:01.157Z,14.6
2023-08-06T05:01:01.212Z,14.5
2023-08-06T05:07:01.190Z,14.5
2023-08-06T05:09:01.200Z,14.6
2023-08-06T05:11:01.200Z,14.6
2023-08-06T05:13:01.173Z,14.5
2023-08-06T05:15:01.199Z,14.5
2023-08-06T05:18:01.046Z,14.4
2023-08-06T05:23:01.145Z,14.5
2023-08-06T05:27:01.082Z,14.5
2023-08-06T05:28:01.098Z,14.3
2023-08-06T05:29:01.187Z,14.4
2023-08-06T05:32:01.220Z,14.5
2023-08-06T05:37:01.077Z,14.3
2023-08-06T05:39:01.174Z,14.4
2023-08-06T05:41:01.116Z,14.4
2023-08-06T05:44:03.423Z,14.5
2023-08-06T05:51:01.070Z,14.6
2023-08-06T05:52:01.142Z,14.5
2023-08-06T05:54:01.124Z,14.7
2023-08-06T05:55:01.195Z,14.6
2023-08-06T05:57:01.139Z,14.6
2023-08-06T05:58:01.130Z,14.7
2023-08-06T05:59:01.122Z,14.6
2023-08-06T06:01:01.316Z,14.7
2023-08-06T06:03:01.243Z,14.7
2023-08-06T06:05:01.160Z,14.8
2023-08-06T06:10:01.181Z,14.9
2023-08-06T06:15:01.098Z,15
2023-08-06T06:17:01.151Z,15
2023-08-06T06:19:01.090Z,15.1
2023-08-06T06:21:01.091Z,15.2
2023-08-06T06:23:01.202Z,15
2023-08-06T06:25:01.165Z,15.2
2023-08-06T06:27:01.196Z,15.1
2023-08-06T06:29:01.108Z,15.4
2023-08-06T06:31:01.149Z,15.3
2023-08-06T06:33:01.367Z,15.4
2023-08-06T06:35:01.176Z,15.3
2023-08-06T06:39:01.142Z,15.4
2023-08-06T06:43:01.072Z,15.5
2023-08-06T06:46:01.237Z,15.5
2023-08-06T06:48:01.301Z,15.4
2023-08-06T06:49:01.287Z,15.5
2023-08-06T06:51:01.229Z,15.4
2023-08-06T06:53:01.203Z,15.6
2023-08-06T06:55:01.366Z,15.5
2023-08-06T06:58:01.029Z,15.5
2023-08-06T06:59:01.164Z,15.4
2023-08-06T07:01:01.212Z,15.6
2023-08-06T07:03:01.208Z,15.5
2023-08-06T07:06:01.185Z,15.6
2023-08-06T07:07:01.123Z,15.5
2023-08-06T07:08:01.145Z,15.6
2023-08-06T07:11:01.135Z,15.7
2023-08-06T07:12:01.143Z,15.6
2023-08-06T07:13:01.081Z,15.7
2023-08-06T07:17:01.281Z,15.8
2023-08-06T07:21:01.118Z,15.9
2023-08-06T07:23:01.181Z,16
2023-08-06T07:24:01.209Z,15.9
2023-08-06T07:31:01.237Z,16.1
2023-08-06T07:33:01.227Z,15.9
2023-08-06T07:35:01.359Z,15.9
2023-08-06T07:37:01.142Z,16.1
2023-08-06T07:39:01.237Z,15.9
2023-08-06T07:42:01.056Z,16.1
2023-08-06T07:43:01.205Z,16.2
2023-08-06T07:44:01.203Z,16.1
2023-08-06T07:47:01.189Z,16.2
2023-08-06T07:55:01.210Z,16.3
2023-08-06T07:57:01.119Z,16.4
2023-08-06T07:58:01.246Z,16.2
2023-08-06T08:01:03.392Z,16.5
2023-08-06T08:04:01.026Z,16.5
2023-08-06T08:06:01.189Z,16.4
2023-08-06T08:07:01.144Z,16.5
2023-08-06T08:09:01.242Z,16.4
2023-08-06T08:11:01.454Z,16.5
2023-08-06T08:13:01.299Z,16.5
2023-08-06T08:19:01.404Z,16.8
2023-08-06T08:22:01.073Z,16.7
2023-08-06T08:23:01.098Z,16.8
2023-08-06T08:25:01.202Z,17
2023-08-06T08:27:01.136Z,17
2023-08-06T08:28:01.163Z,16.9
2023-08-06T08:29:01.289Z,17.1
2023-08-06T08:31:01.292Z,17.1
2023-08-06T08:32:01.237Z,17
2023-08-06T08:34:01.022Z,17.2
2023-08-06T08:35:01.393Z,17.3
2023-08-06T08:37:01.137Z,17.3
2023-08-06T08:38:01.119Z,17.2
2023-08-06T08:39:01.124Z,17.4
2023-08-06T08:41:01.145Z,17.4
2023-08-06T08:43:01.080Z,17.4
2023-08-06T08:45:01.148Z,17.3
2023-08-06T08:51:01.203Z,17.4
2023-08-06T08:53:01.124Z,17.5
2023-08-06T08:55:01.120Z,17.5
2023-08-06T08:58:01.051Z,17.5
2023-08-06T09:00:01.115Z,17.7
2023-08-06T09:01:01.130Z,17.8
2023-08-06T09:05:01.080Z,17.9
2023-08-06T09:08:01.153Z,17.7
2023-08-06T09:10:01.108Z,18
2023-08-06T09:11:01.135Z,17.8
2023-08-06T09:14:01.067Z,17.8
2023-08-06T09:15:01.129Z,18
2023-08-06T09:17:01.127Z,18
2023-08-06T09:22:01.038Z,17.9
2023-08-06T09:25:01.193Z,18
2023-08-06T09:27:01.071Z,17.9
2023-08-06T09:28:01.350Z,18
2023-08-06T09:30:01.163Z,18
2023-08-06T09:32:01.023Z,17.9
2023-08-06T09:34:00.976Z,18
2023-08-06T09:38:01.041Z,18.1
2023-08-06T09:40:01.026Z,17.8
2023-08-06T09:41:01.244Z,18
2023-08-06T09:43:02.812Z,17.9
2023-08-06T09:45:01.093Z,17.9
2023-08-06T09:47:01.186Z,17.8
2023-08-06T09:49:01.127Z,17.7
2023-08-06T09:50:01.221Z,17.8
2023-08-06T09:52:01.046Z,17.9
2023-08-06T09:53:01.081Z,17.8
2023-08-06T09:55:01.092Z,17.7
2023-08-06T09:57:01.093Z,17.7
2023-08-06T09:59:01.134Z,17.7
2023-08-06T10:02:01.059Z,17.8
2023-08-06T10:04:01.547Z,17.8
2023-08-06T10:05:01.088Z,18
2023-08-06T10:07:01.185Z,18.1
2023-08-06T10:08:01.220Z,18
2023-08-06T10:11:01.045Z,18.1
2023-08-06T10:12:01.162Z,18
2023-08-06T10:14:01.030Z,18.1
2023-08-06T10:15:01.177Z,18
2023-08-06T10:17:01.118Z,18.1
2023-08-06T10:19:01.130Z,17.9
2023-08-06T10:21:01.117Z,17.9
2023-08-06T10:23:01.156Z,18.2
2023-08-06T10:25:01.175Z,18.1
2023-08-06T10:26:01.197Z,18
2023-08-06T10:28:01.041Z,18.1
2023-08-06T10:29:01.135Z,18.3
2023-08-06T10:32:01.035Z,18.3
2023-08-06T10:35:01.122Z,18.4
2023-08-06T10:37:01.061Z,18.3
2023-08-06T10:39:01.126Z,18.5
2023-08-06T10:41:01.082Z,18.6
2023-08-06T10:43:01.080Z,18.5
2023-08-06T10:45:01.257Z,18.7
2023-08-06T10:47:01.203Z,18.6
2023-08-06T10:49:01.051Z,18.8
2023-08-06T11:01:01.505Z,18.8
2023-08-06T11:03:01.378Z,18.9
2023-08-06T11:06:01.301Z,18.9
2023-08-06T11:07:01.937Z,19
2023-08-06T11:09:01.454Z,19
2023-08-06T11:14:01.388Z,19.3
2023-08-06T11:16:01.281Z,19.4
2023-08-06T11:18:01.280Z,19.7
2023-08-06T11:22:01.241Z,19.9
2023-08-06T11:24:01.351Z,20
2023-08-06T11:26:01.200Z,20.2
2023-08-06T11:27:01.205Z,20.3
2023-08-06T11:28:01.143Z,20.5
2023-08-06T11:29:01.112Z,20.7
2023-08-06T11:31:01.166Z,20.8
2023-08-06T11:33:01.139Z,20.9
2023-08-06T11:37:01.190Z,21.2
2023-08-06T11:40:01.142Z,21.3
2023-08-06T11:42:01.034Z,21.4
2023-08-06T11:43:01.196Z,21.5
2023-08-06T11:46:01.088Z,21.5
2023-08-06T11:48:01.081Z,21.7
2023-08-06T11:49:01.224Z,21.6
2023-08-06T11:52:01.066Z,21.6
2023-08-06T11:56:01.293Z,21.7
2023-08-06T11:58:01.167Z,21.7
2023-08-06T11:59:01.137Z,21.6
2023-08-06T12:00:01.171Z,21.5
2023-08-06T12:02:01.181Z,21.7
2023-08-06T12:04:01.226Z,21.7
2023-08-06T12:07:01.266Z,22
2023-08-06T12:09:01.081Z,21.8
2023-08-06T12:11:01.134Z,21.9
2023-08-06T12:13:01.137Z,22.2
2023-08-06T12:16:01.352Z,22.5
2023-08-06T12:18:01.277Z,22.4
2023-08-06T12:21:01.072Z,22.1
2023-08-06T12:22:01.100Z,22.2
2023-08-06T12:25:01.124Z,22.4
2023-08-06T12:27:01.264Z,22.3
2023-08-06T12:31:01.202Z,22
2023-08-06T12:35:01.068Z,21.8
2023-08-06T12:36:01.143Z,22
2023-08-06T12:39:01.177Z,21.9
2023-08-06T12:41:01.067Z,22.1
2023-08-06T12:42:04.454Z,22.2
2023-08-06T12:45:01.092Z,22.3
2023-08-06T12:46:01.168Z,22.2
2023-08-06T12:51:01.103Z,22.5
2023-08-06T12:55:01.107Z,22.3
2023-08-06T12:58:01.133Z,22.1
2023-08-06T12:59:01.189Z,22
2023-08-06T13:04:11.422Z,21.9
2023-08-06T13:06:01.093Z,22.2
2023-08-06T13:08:01.175Z,22.2
2023-08-06T13:10:01.156Z,22
2023-08-06T13:11:01.282Z,21.9
2023-08-06T13:14:01.087Z,21.9
2023-08-06T13:16:01.180Z,22
2023-08-06T13:17:01.176Z,22.1
2023-08-06T13:23:01.157Z,22.4
2023-08-06T13:25:01.058Z,22.7
2023-08-06T13:29:01.336Z,23.3
2023-08-06T13:31:01.073Z,23.1
2023-08-06T13:32:01.218Z,23.3
2023-08-06T13:34:01.140Z,23.5
2023-08-06T13:35:01.224Z,23.4
2023-08-06T13:38:01.079Z,23.3
2023-08-06T13:39:01.154Z,23.1
2023-08-06T13:40:01.179Z,23
2023-08-06T13:41:01.255Z,22.8
2023-08-06T13:44:01.097Z,22.2
2023-08-06T13:45:01.162Z,22.3
2023-08-06T13:48:01.154Z,22.4
2023-08-06T13:49:01.120Z,22.3
2023-08-06T13:54:01.039Z,22.2
2023-08-06T13:55:01.201Z,22.4
2023-08-06T13:57:01.193Z,22.1
2023-08-06T13:58:01.206Z,22
2023-08-06T13:59:01.221Z,21.9
2023-08-06T14:00:01.195Z,21.8
2023-08-06T14:01:01.214Z,21.7
2023-08-06T14:04:01.058Z,21.2
2023-08-06T14:05:01.067Z,21
2023-08-06T14:06:01.228Z,21.2
2023-08-06T14:07:01.216Z,20.9
2023-08-06T14:08:01.127Z,21
2023-08-06T14:09:01.216Z,20.8
2023-08-06T14:11:01.122Z,20.6
2023-08-06T14:13:09.232Z,20.8
2023-08-06T14:15:01.386Z,20.8
2023-08-06T14:19:01.134Z,20.6
2023-08-06T14:21:01.172Z,20.7
2023-08-06T14:24:01.141Z,20.6
2023-08-06T14:25:01.179Z,20.5
2023-08-06T14:26:01.145Z,20.6
2023-08-06T14:29:01.211Z,20.7
2023-08-06T14:30:01.186Z,20.6
2023-08-06T14:31:01.267Z,20.7
2023-08-06T14:33:06.599Z,20.6
2023-08-06T14:36:01.149Z,20.6
2023-08-06T14:39:01.515Z,20.5
2023-08-06T14:41:01.174Z,20.6
2023-08-06T14:43:01.104Z,20.5
2023-08-06T14:47:01.189Z,20.4
2023-08-06T14:48:01.339Z,20.3
2023-08-06T14:51:01.214Z,20.3
2023-08-06T14:53:02.523Z,20.2
2023-08-06T14:54:01.176Z,20.1
2023-08-06T14:55:01.230Z,20.3
2023-08-06T14:57:01.186Z,20.2
2023-08-06T14:59:01.204Z,20
2023-08-06T15:01:01.210Z,20.2
2023-08-06T15:05:01.227Z,20.2
2023-08-06T15:08:01.103Z,20.1
2023-08-06T15:10:20.163Z,20.2
2023-08-06T15:11:01.094Z,20.1
2023-08-06T15:15:01.203Z,20.2
2023-08-06T15:18:01.079Z,20.1
2023-08-06T15:19:01.073Z,20.2
2023-08-06T15:20:01.172Z,20.3
2023-08-06T15:22:01.049Z,20.2
2023-08-06T15:23:01.127Z,20.3
2023-08-06T15:24:01.141Z,20.2
2023-08-06T15:27:01.187Z,20.3
2023-08-06T15:31:01.189Z,20.4
2023-08-06T15:33:01.140Z,20.5
2023-08-06T15:36:01.172Z,20.6
2023-08-06T15:38:01.048Z,20.4
2023-08-06T15:39:01.114Z,20.3
2023-08-06T15:41:01.138Z,20.3
2023-08-06T15:43:01.094Z,20.1
2023-08-06T15:44:01.140Z,20.2
2023-08-06T15:45:01.129Z,20.3
2023-08-06T15:47:01.110Z,20.4
2023-08-06T15:49:01.074Z,20.5
2023-08-06T15:51:01.089Z,20.4
2023-08-06T15:53:01.163Z,20.3
2023-08-06T15:57:01.158Z,20.4
2023-08-06T15:59:01.148Z,20.5
2023-08-06T16:01:01.103Z,20.4
2023-08-06T16:03:01.101Z,20.5
2023-08-06T16:04:01.049Z,20.4
2023-08-06T16:05:01.145Z,20.5
2023-08-06T16:08:01.102Z,20.5
2023-08-06T16:10:01.070Z,20.4
2023-08-06T16:11:01.125Z,20.2
2023-08-06T16:13:01.304Z,20.1
2023-08-06T16:16:01.101Z,20
2023-08-06T16:18:01.110Z,20
2023-08-06T16:21:01.068Z,19.9
2023-08-06T16:23:01.063Z,19.8
2023-08-06T16:25:01.102Z,19.8
2023-08-06T16:27:01.023Z,19.9
2023-08-06T16:28:01.169Z,19.7
2023-08-06T16:29:01.143Z,19.6
2023-08-06T16:33:01.099Z,19.7
2023-08-06T16:35:01.076Z,19.6
2023-08-06T16:39:01.117Z,19.8
2023-08-06T16:41:01.095Z,19.9
2023-08-06T16:43:01.061Z,19.9
2023-08-06T16:45:01.116Z,19.7
2023-08-06T16:49:01.045Z,19.6
2023-08-06T16:50:01.210Z,19.5
2023-08-06T16:55:01.116Z,19.3
2023-08-06T16:57:01.208Z,19.2
2023-08-06T17:00:01.099Z,19.1
2023-08-06T17:01:01.174Z,19.3
2023-08-06T17:02:01.124Z,19.2
2023-08-06T17:04:01.030Z,19.1
2023-08-06T17:06:00.973Z,19.2
2023-08-06T17:07:01.066Z,19.1
2023-08-06T17:09:01.011Z,19
2023-08-06T17:10:01.030Z,19.1
2023-08-06T17:11:01.110Z,19
2023-08-06T17:13:09.958Z,19.1
2023-08-06T17:14:01.094Z,18.9
2023-08-06T17:17:01.032Z,18.8
2023-08-06T17:19:01.072Z,18.7
2023-08-06T17:21:01.248Z,18.8
2023-08-06T17:25:01.035Z,18.6
2023-08-06T17:28:01.070Z,18.8
2023-08-06T17:29:01.143Z,18.6
2023-08-06T17:31:01.078Z,18.9
2023-08-06T17:33:01.065Z,18.7
2023-08-06T17:35:01.051Z,18.5
2023-08-06T17:37:01.079Z,18.5
2023-08-06T17:39:01.124Z,18.4
2023-08-06T17:41:01.036Z,18.6
2023-08-06T17:42:01.097Z,18.4
2023-08-06T17:44:01.108Z,18.3
2023-08-06T17:45:01.068Z,18.2
2023-08-06T17:47:01.074Z,18.1
2023-08-06T17:49:01.081Z,18.1
2023-08-06T17:50:01.108Z,18
2023-08-06T17:51:01.176Z,18.1
2023-08-06T17:52:01.152Z,18
2023-08-06T17:54:01.090Z,18
2023-08-06T17:55:01.068Z,17.8
2023-08-06T17:58:01.140Z,17.8
2023-08-06T18:01:01.249Z,17.9
2023-08-06T18:03:01.179Z,17.7
2023-08-06T18:06:01.319Z,17.5
2023-08-06T18:09:01.169Z,17.4
2023-08-06T18:13:01.134Z,17.4
2023-08-06T18:15:01.230Z,17.3
2023-08-06T18:19:01.163Z,17
2023-08-06T18:22:01.098Z,17
2023-08-06T18:23:01.116Z,17.1
2023-08-06T18:27:01.048Z,16.9
2023-08-06T18:31:01.247Z,16.7
2023-08-06T18:33:01.137Z,16.8
2023-08-06T18:35:01.062Z,16.7
2023-08-06T18:40:01.022Z,16.5
2023-08-06T18:41:01.160Z,16.6
2023-08-06T18:45:01.068Z,16.4
2023-08-06T18:47:01.057Z,16.4
2023-08-06T18:52:01.074Z,16.3
2023-08-06T18:54:01.105Z,16.2
2023-08-06T18:55:01.249Z,16.3
2023-08-06T18:57:01.133Z,16.3
2023-08-06T18:59:01.066Z,16.2
2023-08-06T19:01:01.090Z,16
2023-08-06T19:05:02.564Z,16.1
2023-08-06T19:09:01.055Z,16.1
2023-08-06T19:11:01.128Z,16.1
2023-08-06T19:15:01.065Z,16.2
2023-08-06T19:16:01.083Z,15.9
2023-08-06T19:17:01.104Z,16.1
2023-08-06T19:18:01.142Z,15.9
2023-08-06T19:19:01.109Z,16
2023-08-06T19:23:01.086Z,16
2023-08-06T19:27:02.633Z,15.8
2023-08-06T19:31:01.136Z,15.7
2023-08-06T19:33:01.158Z,15.7
2023-08-06T19:35:01.102Z,15.6
2023-08-06T19:36:01.152Z,15.7
2023-08-06T19:37:01.191Z,15.6
2023-08-06T19:39:01.053Z,15.6
2023-08-06T19:42:01.033Z,15.7
2023-08-06T19:43:01.099Z,15.6
2023-08-06T19:46:01.098Z,15.5
2023-08-06T19:47:01.423Z,15.6
2023-08-06T19:51:01.075Z,15.3
2023-08-06T19:54:01.046Z,15.4
2023-08-06T19:55:01.116Z,15.3
2023-08-06T19:58:01.018Z,15.4
2023-08-06T19:59:01.128Z,15.2
2023-08-06T20:01:00.995Z,15.3
2023-08-06T20:02:01.020Z,15.2
2023-08-06T20:05:00.967Z,15.1
2023-08-06T20:06:00.971Z,15.2
2023-08-06T20:07:01.006Z,15.3
2023-08-06T20:08:01.004Z,15.1
2023-08-06T20:10:00.989Z,15.3
2023-08-06T20:12:01.111Z,15.1
2023-08-06T20:14:00.991Z,15.1
2023-08-06T20:16:01.142Z,14.9
2023-08-06T20:18:00.995Z,15
2023-08-06T20:23:01.011Z,15.1
2023-08-06T20:24:01.054Z,15
2023-08-06T20:27:01.136Z,14.9
2023-08-06T20:30:01.041Z,14.9
2023-08-06T20:33:01.123Z,14.9
2023-08-06T20:35:01.009Z,14.9
2023-08-06T20:37:00.932Z,14.8
2023-08-06T20:38:01.011Z,14.7
2023-08-06T20:40:00.997Z,14.8
2023-08-06T20:42:01.024Z,14.7
2023-08-06T20:45:00.953Z,14.7
2023-08-06T20:47:01.058Z,14.8
2023-08-06T20:48:01.196Z,14.7
2023-08-06T20:50:01.027Z,14.8
2023-08-06T20:53:00.950Z,14.6
2023-08-06T20:55:00.967Z,14.7
2023-08-06T20:57:01.173Z,14.6
2023-08-06T20:59:00.946Z,14.5
2023-08-06T21:01:01.100Z,14.6
2023-08-06T21:03:01.010Z,14.6
2023-08-06T21:04:01.012Z,14.4
2023-08-06T21:07:00.951Z,14.4
2023-08-06T21:08:01.009Z,14.6
2023-08-06T21:09:01.112Z,14.4
2023-08-06T21:12:01.060Z,14.6
2023-08-06T21:17:01.027Z,14.3
2023-08-06T21:18:01.076Z,14.4
2023-08-06T21:20:01.034Z,14.3
2023-08-06T21:23:01.008Z,14.2
2023-08-06T21:27:01.482Z,14.1
2023-08-06T21:28:01.018Z,14.2
2023-08-06T21:29:01.013Z,14.1
2023-08-06T21:30:01.014Z,14.2
2023-08-06T21:35:01.197Z,14.1
2023-08-06T21:36:01.024Z,14.2
2023-08-06T21:40:01.019Z,14.2
2023-08-06T21:42:01.032Z,14.2
2023-08-06T21:44:01.025Z,14.1
2023-08-06T21:45:01.189Z,14.3
2023-08-06T21:46:01.124Z,14.2
2023-08-06T21:48:01.051Z,14.1
2023-08-06T21:50:00.972Z,14.1
2023-08-06T21:54:01.126Z,14
2023-08-06T21:56:01.032Z,14.1
2023-08-06T21:58:01.025Z,14
2023-08-06T22:02:00.988Z,14.1
2023-08-06T22:05:01.021Z,13.9
2023-08-06T22:07:01.028Z,13.9
2023-08-06T22:08:01.020Z,14.1
2023-08-06T22:09:01.153Z,14
2023-08-06T22:11:00.971Z,14
2023-08-06T22:16:01.080Z,13.9
2023-08-06T22:18:01.088Z,14
2023-08-06T22:20:01.013Z,14
2023-08-06T22:21:01.118Z,13.9
2023-08-06T22:23:00.973Z,14
2023-08-06T22:24:01.034Z,13.9
2023-08-06T22:25:01.001Z,14
2023-08-06T22:26:01.050Z,13.9
2023-08-06T22:27:01.184Z,14
2023-08-06T22:29:01.886Z,13.9
2023-08-06T22:30:01.078Z,13.8
2023-08-06T22:32:00.968Z,13.7
2023-08-06T22:34:01.040Z,13.9
2023-08-06T22:37:00.987Z,14
2023-08-06T22:38:00.969Z,13.9
2023-08-06T22:40:01.011Z,13.8
2023-08-06T22:42:01.062Z,14
2023-08-06T22:44:00.977Z,13.9
2023-08-06T22:45:01.089Z,13.8
2023-08-06T22:47:01.016Z,13.8
2023-08-06T22:48:01.100Z,14
2023-08-06T22:51:01.064Z,13.9
2023-08-06T22:59:01.050Z,13.7
2023-08-06T23:00:01.025Z,13.9
2023-08-06T23:01:00.985Z,13.8
2023-08-06T23:03:09.588Z,13.8
2023-08-06T23:07:00.973Z,13.9
2023-08-06T23:08:01.026Z,13.8
2023-08-06T23:10:00.999Z,13.7
2023-08-06T23:11:00.996Z,13.8
2023-08-06T23:20:00.979Z,13.9
2023-08-06T23:21:01.038Z,14
2023-08-06T23:22:01.030Z,13.7
2023-08-06T23:24:01.956Z,13.6
2023-08-06T23:25:01.068Z,13.8
2023-08-06T23:31:01.031Z,13.9
2023-08-06T23:35:01.059Z,13.7
2023-08-06T23:38:00.970Z,13.7
2023-08-06T23:42:00.995Z,13.8
2023-08-06T23:43:01.015Z,13.7
2023-08-06T23:44:01.013Z,13.8
2023-08-06T23:46:01.264Z,13.7
2023-08-06T23:47:00.990Z,13.6
2023-08-06T23:48:01.018Z,13.8
2023-08-06T23:52:00.983Z,13.7
2023-08-06T23:53:00.983Z,13.6
2023-08-06T23:54:01.091Z,13.8
2023-08-06T23:58:00.965Z,13.6
